createdAt,value
2018-05-02T00:00:37.863Z,967.53
2018-05-02T00:01:38.533Z,967.58
2018-05-02T00:02:39.203Z,967.58
2018-05-02T00:03:39.871Z,967.60
2018-05-02T00:04:40.542Z,967.60
2018-05-02T00:05:41.215Z,967.63
2018-05-02T00:06:41.878Z,967.65
2018-05-02T00:07:42.548Z,967.65
2018-05-02T00:08:43.221Z,967.67
2018-05-02T00:09:43.899Z,967.67
2018-05-02T00:10:44.571Z,967.64
2018-05-02T00:11:45.241Z,967.66
2018-05-02T00:12:45.910Z,967.67
2018-05-02T00:13:46.584Z,967.69
2018-05-02T00:14:47.248Z,967.69
2018-05-02T00:15:47.926Z,967.73
2018-05-02T00:16:48.591Z,967.75
2018-05-02T00:17:49.265Z,967.70
2018-05-02T00:18:49.932Z,967.69
2018-05-02T00:19:50.600Z,967.73
2018-05-02T00:20:51.271Z,967.75
2018-05-02T00:21:51.943Z,967.72
2018-05-02T00:22:52.618Z,967.73
2018-05-02T00:23:53.285Z,967.71
2018-05-02T00:24:53.957Z,967.71
2018-05-02T00:25:54.629Z,967.70
2018-05-02T00:26:55.293Z,967.71
2018-05-02T00:27:55.970Z,967.70
2018-05-02T00:28:56.640Z,967.70
2018-05-02T00:29:57.307Z,967.68
2018-05-02T00:30:57.979Z,967.66
2018-05-02T00:31:58.645Z,967.68
2018-05-02T00:32:59.312Z,967.60
2018-05-02T00:33:59.989Z,967.68
2018-05-02T00:35:00.658Z,967.63
2018-05-02T00:36:01.328Z,967.64
2018-05-02T00:37:01.995Z,967.65
2018-05-02T00:38:02.668Z,967.65
2018-05-02T00:39:03.337Z,967.60
2018-05-02T00:40:04.009Z,967.61
2018-05-02T00:41:04.679Z,967.62
2018-05-02T00:42:05.349Z,967.63
2018-05-02T00:43:06.021Z,967.60
2018-05-02T00:44:06.695Z,967.61
2018-05-02T00:45:07.367Z,967.59
2018-05-02T00:46:08.040Z,967.56
2018-05-02T00:47:08.709Z,967.59
2018-05-02T00:48:09.384Z,967.56
2018-05-02T00:49:10.065Z,967.58
2018-05-02T00:50:10.734Z,967.59
2018-05-02T00:51:11.409Z,967.61
2018-05-02T00:52:12.079Z,967.68
2018-05-02T00:53:12.751Z,967.62
2018-05-02T00:54:13.420Z,967.63
2018-05-02T00:55:14.089Z,967.66
2018-05-02T00:56:14.762Z,967.66
2018-05-02T00:57:15.431Z,967.66
2018-05-02T00:58:16.101Z,967.67
2018-05-02T00:59:16.775Z,967.70
2018-05-02T01:00:17.453Z,967.66
2018-05-02T01:01:18.122Z,967.60
2018-05-02T01:02:18.792Z,967.54
2018-05-02T01:03:19.460Z,967.55
2018-05-02T01:04:20.133Z,967.55
2018-05-02T01:05:20.804Z,967.50
2018-05-02T01:06:21.478Z,967.53
2018-05-02T01:07:22.147Z,967.49
2018-05-02T01:08:22.822Z,967.47
2018-05-02T01:09:23.493Z,967.49
2018-05-02T01:10:24.165Z,967.48
2018-05-02T01:11:24.838Z,967.47
2018-05-02T01:12:25.506Z,967.43
2018-05-02T01:13:26.177Z,967.44
2018-05-02T01:14:26.853Z,967.45
2018-05-02T01:15:27.524Z,967.43
2018-05-02T01:16:28.202Z,967.39
2018-05-02T01:17:28.879Z,967.39
2018-05-02T01:18:29.551Z,967.39
2018-05-02T01:19:30.224Z,967.42
2018-05-02T01:20:30.892Z,967.43
2018-05-02T01:21:31.565Z,967.42
2018-05-02T01:22:32.238Z,967.45
2018-05-02T01:23:32.911Z,967.46
2018-05-02T01:24:33.580Z,967.44
2018-05-02T01:25:34.248Z,967.42
2018-05-02T01:26:34.924Z,967.44
2018-05-02T01:27:35.599Z,967.39
2018-05-02T01:28:36.267Z,967.44
2018-05-02T01:29:36.936Z,967.41
2018-05-02T01:30:37.604Z,967.43
2018-05-02T01:31:38.275Z,967.41
2018-05-02T01:32:38.949Z,967.38
2018-05-02T01:33:39.613Z,967.41
2018-05-02T01:34:40.283Z,967.40
2018-05-02T01:35:40.956Z,967.39
2018-05-02T01:36:41.624Z,967.35
2018-05-02T01:37:42.296Z,967.35
2018-05-02T01:38:42.973Z,967.36
2018-05-02T01:39:43.639Z,967.32
2018-05-02T01:40:44.313Z,967.32
2018-05-02T01:41:44.987Z,967.35
2018-05-02T01:42:45.656Z,967.31
2018-05-02T01:43:46.328Z,967.36
2018-05-02T01:44:46.999Z,967.32
2018-05-02T01:45:47.671Z,967.29
2018-05-02T01:46:48.343Z,967.25
2018-05-02T01:47:49.009Z,967.28
2018-05-02T01:48:49.682Z,967.29
2018-05-02T01:49:50.351Z,967.24
2018-05-02T01:50:51.021Z,967.27
2018-05-02T01:51:51.700Z,967.28
2018-05-02T01:52:52.365Z,967.28
2018-05-02T01:53:53.036Z,967.31
2018-05-02T01:54:53.712Z,967.27
2018-05-02T01:55:54.393Z,967.30
2018-05-02T01:56:55.064Z,967.32
2018-05-02T01:57:55.738Z,967.30
2018-05-02T01:58:56.408Z,967.26
2018-05-02T01:59:57.090Z,967.25
2018-05-02T02:00:57.752Z,967.29
2018-05-02T02:01:58.439Z,967.32
2018-05-02T02:02:59.095Z,967.40
2018-05-02T02:03:59.768Z,967.40
2018-05-02T02:05:00.441Z,967.40
2018-05-02T02:06:01.111Z,967.39
2018-05-02T02:07:01.780Z,967.37
2018-05-02T02:08:02.447Z,967.43
2018-05-02T02:09:03.119Z,967.40
2018-05-02T02:10:03.799Z,967.41
2018-05-02T02:11:04.462Z,967.39
2018-05-02T02:12:05.134Z,967.32
2018-05-02T02:13:05.808Z,967.40
2018-05-02T02:14:06.484Z,967.30
2018-05-02T02:15:07.157Z,967.29
2018-05-02T02:16:07.825Z,967.27
2018-05-02T02:17:08.495Z,967.21
2018-05-02T02:18:09.165Z,967.15
2018-05-02T02:19:09.835Z,967.15
2018-05-02T02:20:10.507Z,967.10
2018-05-02T02:21:11.179Z,967.12
2018-05-02T02:22:11.848Z,967.10
2018-05-02T02:23:12.515Z,967.05
2018-05-02T02:24:13.189Z,967.07
2018-05-02T02:25:13.866Z,967.07
2018-05-02T02:26:14.543Z,967.04
2018-05-02T02:27:15.206Z,967.09
2018-05-02T02:28:15.875Z,967.00
2018-05-02T02:29:16.545Z,966.97
2018-05-02T02:30:17.219Z,967.01
2018-05-02T02:31:17.893Z,966.98
2018-05-02T02:32:18.566Z,966.94
2018-05-02T02:33:19.235Z,966.92
2018-05-02T02:34:19.903Z,966.96
2018-05-02T02:35:20.571Z,966.95
2018-05-02T02:36:21.240Z,966.96
2018-05-02T02:37:21.913Z,967.01
2018-05-02T02:38:22.582Z,967.03
2018-05-02T02:39:23.261Z,967.07
2018-05-02T02:40:23.925Z,967.08
2018-05-02T02:41:24.596Z,967.08
2018-05-02T02:42:25.276Z,967.14
2018-05-02T02:43:25.943Z,967.12
2018-05-02T02:44:26.614Z,967.13
2018-05-02T02:45:27.286Z,967.12
2018-05-02T02:46:27.961Z,967.13
2018-05-02T02:47:28.642Z,967.08
2018-05-02T02:48:29.305Z,967.06
2018-05-02T02:49:29.975Z,967.12
2018-05-02T02:50:30.644Z,967.13
2018-05-02T02:51:31.313Z,967.14
2018-05-02T02:52:31.987Z,967.18
2018-05-02T02:53:32.657Z,967.16
2018-05-02T02:54:33.334Z,967.18
2018-05-02T02:55:33.995Z,967.13
2018-05-02T02:56:34.666Z,967.13
2018-05-02T02:57:35.334Z,967.13
2018-05-02T02:58:36.008Z,967.08
2018-05-02T02:59:36.678Z,967.06
2018-05-02T03:00:37.347Z,967.11
2018-05-02T03:01:38.020Z,967.03
2018-05-02T03:02:38.686Z,967.12
2018-05-02T03:03:39.361Z,967.08
2018-05-02T03:04:40.034Z,967.04
2018-05-02T03:05:40.706Z,967.02
2018-05-02T03:06:41.377Z,967.02
2018-05-02T03:07:42.053Z,966.98
2018-05-02T03:08:42.728Z,967.02
2018-05-02T03:09:43.395Z,966.98
2018-05-02T03:10:44.066Z,966.99
2018-05-02T03:11:44.736Z,966.99
2018-05-02T03:12:45.428Z,966.98
2018-05-02T03:13:46.085Z,967.00
2018-05-02T03:14:46.751Z,966.99
2018-05-02T03:15:47.424Z,966.98
2018-05-02T03:16:48.096Z,966.98
2018-05-02T03:17:48.763Z,966.97
2018-05-02T03:18:49.432Z,967.00
2018-05-02T03:19:50.102Z,967.04
2018-05-02T03:20:50.772Z,967.03
2018-05-02T03:21:51.445Z,967.03
2018-05-02T03:22:52.112Z,967.00
2018-05-02T03:23:52.788Z,967.02
2018-05-02T03:24:53.464Z,967.02
2018-05-02T03:25:54.132Z,966.99
2018-05-02T03:26:54.806Z,967.00
2018-05-02T03:27:55.478Z,967.01
2018-05-02T03:28:56.147Z,966.96
2018-05-02T03:29:56.823Z,966.89
2018-05-02T03:30:57.493Z,966.85
2018-05-02T03:31:58.167Z,966.79
2018-05-02T03:32:58.837Z,966.78
2018-05-02T03:33:59.506Z,966.79
2018-05-02T03:35:00.173Z,966.76
2018-05-02T03:36:00.841Z,966.79
2018-05-02T03:37:01.513Z,966.81
2018-05-02T03:38:02.188Z,966.77
2018-05-02T03:39:02.858Z,966.79
2018-05-02T03:40:03.530Z,966.77
2018-05-02T03:41:04.202Z,966.75
2018-05-02T03:42:04.868Z,966.72
2018-05-02T03:43:05.545Z,966.74
2018-05-02T03:44:06.216Z,966.71
2018-05-02T03:45:06.890Z,966.67
2018-05-02T03:46:07.571Z,966.70
2018-05-02T03:47:08.238Z,966.68
2018-05-02T03:48:08.904Z,966.66
2018-05-02T03:49:09.581Z,966.65
2018-05-02T03:50:10.249Z,966.70
2018-05-02T03:51:10.922Z,966.72
2018-05-02T03:52:11.602Z,966.68
2018-05-02T03:53:12.272Z,966.69
2018-05-02T03:54:12.941Z,966.74
2018-05-02T03:55:13.612Z,966.72
2018-05-02T03:56:14.283Z,966.68
2018-05-02T03:57:14.955Z,966.72
2018-05-02T03:58:15.626Z,966.73
2018-05-02T03:59:16.298Z,966.74
2018-05-02T04:00:16.969Z,966.75
2018-05-02T04:01:17.643Z,966.73
2018-05-02T04:02:18.315Z,966.74
2018-05-02T04:03:18.986Z,966.74
2018-05-02T04:04:19.658Z,966.69
2018-05-02T04:05:20.328Z,966.67
2018-05-02T04:06:21.001Z,966.69
2018-05-02T04:07:21.680Z,966.71
2018-05-02T04:08:22.354Z,966.71
2018-05-02T04:09:23.029Z,966.71
2018-05-02T04:10:23.700Z,966.72
2018-05-02T04:11:24.377Z,966.72
2018-05-02T04:12:25.058Z,966.70
2018-05-02T04:13:25.730Z,966.69
2018-05-02T04:14:26.402Z,966.65
2018-05-02T04:15:27.072Z,966.65
2018-05-02T04:16:27.742Z,966.70
2018-05-02T04:17:28.414Z,966.69
2018-05-02T04:18:29.085Z,966.70
2018-05-02T04:19:29.759Z,966.73
2018-05-02T04:20:30.436Z,966.72
2018-05-02T04:21:31.115Z,966.73
2018-05-02T04:22:31.794Z,966.74
2018-05-02T04:23:32.465Z,966.77
2018-05-02T04:24:33.148Z,966.79
2018-05-02T04:25:33.819Z,966.76
2018-05-02T04:26:34.493Z,966.74
2018-05-02T04:27:35.164Z,966.79
2018-05-02T04:28:35.839Z,966.76
2018-05-02T04:29:36.512Z,966.79
2018-05-02T04:30:37.183Z,966.82
2018-05-02T04:31:37.857Z,966.81
2018-05-02T04:32:38.537Z,966.83
2018-05-02T04:33:39.211Z,966.83
2018-05-02T04:34:39.881Z,966.82
2018-05-02T04:35:40.554Z,966.82
2018-05-02T04:36:41.227Z,966.78
2018-05-02T04:37:41.901Z,966.78
2018-05-02T04:38:42.580Z,966.76
2018-05-02T04:39:43.253Z,966.75
2018-05-02T04:40:43.923Z,966.75
2018-05-02T04:41:44.595Z,966.79
2018-05-02T04:42:45.274Z,966.77
2018-05-02T04:43:45.949Z,966.73
2018-05-02T04:44:46.627Z,966.76
2018-05-02T04:45:47.297Z,966.74
2018-05-02T04:46:47.971Z,966.72
2018-05-02T04:47:48.643Z,966.73
2018-05-02T04:48:49.314Z,966.73
2018-05-02T04:49:49.984Z,966.73
2018-05-02T04:50:50.656Z,966.75
2018-05-02T04:51:51.331Z,966.72
2018-05-02T04:52:52.007Z,966.69
2018-05-02T04:53:52.680Z,966.66
2018-05-02T04:54:53.353Z,966.69
2018-05-02T04:55:54.027Z,966.71
2018-05-02T04:56:54.712Z,966.64
2018-05-02T04:57:55.385Z,966.66
2018-05-02T04:58:56.053Z,966.64
2018-05-02T04:59:56.728Z,966.64
2018-05-02T05:00:57.415Z,966.58
2018-05-02T05:01:58.089Z,966.59
2018-05-02T05:02:58.765Z,966.56
2018-05-02T05:03:59.432Z,966.48
2018-05-02T05:05:00.114Z,966.49
2018-05-02T05:06:00.787Z,966.50
2018-05-02T05:07:01.460Z,966.54
2018-05-02T05:08:02.133Z,966.58
2018-05-02T05:09:02.809Z,966.57
2018-05-02T05:10:03.486Z,966.60
2018-05-02T05:11:04.162Z,966.57
2018-05-02T05:12:04.830Z,966.59
2018-05-02T05:13:05.506Z,966.53
2018-05-02T05:14:06.182Z,966.54
2018-05-02T05:15:06.854Z,966.50
2018-05-02T05:16:07.525Z,966.50
2018-05-02T05:17:08.199Z,966.51
2018-05-02T05:18:08.881Z,966.52
2018-05-02T05:19:09.554Z,966.54
2018-05-02T05:20:10.226Z,966.53
2018-05-02T05:21:10.898Z,966.53
2018-05-02T05:22:11.577Z,966.59
2018-05-02T05:23:12.249Z,966.59
2018-05-02T05:24:12.921Z,966.61
2018-05-02T05:25:13.595Z,966.62
2018-05-02T05:26:14.268Z,966.71
2018-05-02T05:27:14.941Z,966.76
2018-05-02T05:28:15.624Z,966.74
2018-05-02T05:29:16.292Z,966.75
2018-05-02T05:30:16.959Z,966.77
2018-05-02T05:31:17.633Z,966.82
2018-05-02T05:32:18.309Z,966.88
2018-05-02T05:33:18.985Z,966.92
2018-05-02T05:34:19.661Z,966.94
2018-05-02T05:35:20.361Z,966.96
2018-05-02T05:36:21.009Z,966.98
2018-05-02T05:37:21.687Z,966.92
2018-05-02T05:38:22.360Z,966.94
2018-05-02T05:39:23.033Z,966.89
2018-05-02T05:40:23.709Z,966.89
2018-05-02T05:41:24.387Z,966.84
2018-05-02T05:42:25.063Z,966.82
2018-05-02T05:43:25.740Z,966.87
2018-05-02T05:44:26.415Z,966.89
2018-05-02T05:45:27.087Z,966.93
2018-05-02T05:46:27.769Z,966.95
2018-05-02T05:47:28.447Z,966.92
2018-05-02T05:48:29.130Z,966.94
2018-05-02T05:49:29.803Z,966.89
2018-05-02T05:50:30.474Z,966.92
2018-05-02T05:51:31.148Z,966.86
2018-05-02T05:52:31.828Z,966.86
2018-05-02T05:53:32.508Z,966.90
2018-05-02T05:54:33.249Z,966.90
2018-05-02T05:55:33.862Z,966.87
2018-05-02T05:56:34.537Z,966.88
2018-05-02T05:57:35.209Z,966.90
2018-05-02T05:58:35.884Z,966.83
2018-05-02T05:59:36.563Z,966.78
2018-05-02T06:00:37.255Z,966.74
2018-05-02T06:01:37.905Z,966.68
2018-05-02T06:02:38.591Z,966.66
2018-05-02T06:03:39.262Z,966.66
2018-05-02T06:04:39.941Z,966.69
2018-05-02T06:05:40.613Z,966.69
2018-05-02T06:06:41.338Z,966.74
2018-05-02T06:07:41.961Z,966.80
2018-05-02T06:08:42.637Z,966.79
2018-05-02T06:09:43.312Z,966.74
2018-05-02T06:10:43.985Z,966.76
2018-05-02T06:11:44.660Z,966.71
2018-05-02T06:12:45.361Z,966.67
2018-05-02T06:13:46.016Z,966.68
2018-05-02T06:14:46.690Z,966.67
2018-05-02T06:15:47.365Z,966.63
2018-05-02T06:16:48.044Z,966.55
2018-05-02T06:17:48.718Z,966.50
2018-05-02T06:18:49.439Z,966.48
2018-05-02T06:19:50.064Z,966.48
2018-05-02T06:20:50.737Z,966.47
2018-05-02T06:21:51.412Z,966.47
2018-05-02T06:22:52.089Z,966.48
2018-05-02T06:23:52.776Z,966.47
2018-05-02T06:24:53.461Z,966.47
2018-05-02T06:25:54.136Z,966.44
2018-05-02T06:26:54.816Z,966.46
2018-05-02T06:27:55.495Z,966.45
2018-05-02T06:28:56.190Z,966.44
2018-05-02T06:29:56.864Z,966.45
2018-05-02T06:30:57.541Z,966.42
2018-05-02T06:31:58.223Z,966.39
2018-05-02T06:32:58.912Z,966.43
2018-05-02T06:33:59.597Z,966.37
2018-05-02T06:35:00.269Z,966.46
2018-05-02T06:36:00.941Z,966.42
2018-05-02T06:37:01.619Z,966.44
2018-05-02T06:38:02.295Z,966.48
2018-05-02T06:39:02.979Z,966.46
2018-05-02T06:40:03.653Z,966.40
2018-05-02T06:41:04.325Z,966.39
2018-05-02T06:42:05.003Z,966.40
2018-05-02T06:43:05.679Z,966.38
2018-05-02T06:44:06.356Z,966.37
2018-05-02T06:45:07.039Z,966.37
2018-05-02T06:46:07.722Z,966.31
2018-05-02T06:47:08.395Z,966.31
2018-05-02T06:48:09.074Z,966.31
2018-05-02T06:49:09.839Z,966.30
2018-05-02T06:50:10.432Z,966.37
2018-05-02T06:51:11.110Z,966.36
2018-05-02T06:52:11.785Z,966.34
2018-05-02T06:53:12.464Z,966.39
2018-05-02T06:54:13.136Z,966.30
2018-05-02T06:55:13.810Z,966.23
2018-05-02T06:56:14.486Z,966.26
2018-05-02T06:57:15.165Z,966.28
2018-05-02T06:58:15.845Z,966.29
2018-05-02T06:59:16.525Z,966.27
2018-05-02T07:00:17.199Z,966.29
2018-05-02T07:01:17.873Z,966.28
2018-05-02T07:02:18.550Z,966.23
2018-05-02T07:03:19.224Z,966.20
2018-05-02T07:04:19.899Z,966.25
2018-05-02T07:05:20.580Z,966.25
2018-05-02T07:06:21.258Z,966.29
2018-05-02T07:07:21.937Z,966.31
2018-05-02T07:08:22.613Z,966.32
2018-05-02T07:09:23.287Z,966.37
2018-05-02T07:10:23.970Z,966.39
2018-05-02T07:11:24.643Z,966.32
2018-05-02T07:12:25.322Z,966.33
2018-05-02T07:13:26.054Z,966.32
2018-05-02T07:14:26.685Z,966.26
2018-05-02T07:15:27.365Z,966.22
2018-05-02T07:16:28.038Z,966.20
2018-05-02T07:17:28.718Z,966.19
2018-05-02T07:18:29.401Z,966.15
2018-05-02T07:19:30.090Z,966.12
2018-05-02T07:20:30.768Z,966.14
2018-05-02T07:21:31.440Z,966.17
2018-05-02T07:22:32.112Z,966.16
2018-05-02T07:23:32.802Z,966.16
2018-05-02T07:24:33.477Z,966.18
2018-05-02T07:25:34.157Z,966.12
2018-05-02T07:26:34.837Z,966.11
2018-05-02T07:27:35.515Z,966.12
2018-05-02T07:28:36.189Z,966.16
2018-05-02T07:29:36.866Z,966.13
2018-05-02T07:30:37.540Z,966.10
2018-05-02T07:31:38.219Z,966.08
2018-05-02T07:32:38.915Z,966.06
2018-05-02T07:33:39.571Z,966.01
2018-05-02T07:34:40.249Z,966.03
2018-05-02T07:35:40.927Z,966.07
2018-05-02T07:36:41.607Z,966.13
2018-05-02T07:37:42.282Z,966.10
2018-05-02T07:38:42.957Z,966.11
2018-05-02T07:39:43.641Z,966.15
2018-05-02T07:40:44.318Z,966.12
2018-05-02T07:41:45.006Z,966.14
2018-05-02T07:42:45.680Z,966.17
2018-05-02T07:43:46.365Z,966.12
2018-05-02T07:44:47.050Z,966.11
2018-05-02T07:45:47.725Z,966.09
2018-05-02T07:46:48.402Z,966.09
2018-05-02T07:47:49.082Z,966.10
2018-05-02T07:48:49.762Z,966.08
2018-05-02T07:49:50.443Z,966.10
2018-05-02T07:50:51.119Z,966.09
2018-05-02T07:51:51.805Z,966.13
2018-05-02T07:52:52.489Z,966.10
2018-05-02T07:53:53.172Z,966.11
2018-05-02T07:54:53.855Z,966.12
2018-05-02T07:55:54.533Z,966.11
2018-05-02T07:56:55.210Z,966.10
2018-05-02T07:57:55.889Z,966.09
2018-05-02T07:58:56.561Z,966.10
2018-05-02T07:59:57.247Z,966.09
2018-05-02T08:00:57.927Z,966.11
2018-05-02T08:01:58.601Z,966.06
2018-05-02T08:02:59.283Z,966.04
2018-05-02T08:03:59.960Z,966.05
2018-05-02T08:05:00.635Z,966.06
2018-05-02T08:06:01.316Z,966.06
2018-05-02T08:07:01.995Z,966.02
2018-05-02T08:08:02.669Z,966.00
2018-05-02T08:09:03.361Z,966.00
2018-05-02T08:10:04.034Z,965.96
2018-05-02T08:11:04.768Z,965.94
2018-05-02T08:12:05.398Z,965.91
2018-05-02T08:13:06.075Z,965.92
2018-05-02T08:14:06.752Z,965.92
2018-05-02T08:15:07.430Z,965.93
2018-05-02T08:16:08.103Z,965.85
2018-05-02T08:17:08.778Z,965.86
2018-05-02T08:18:09.458Z,965.88
2018-05-02T08:19:10.148Z,965.85
2018-05-02T08:20:10.824Z,965.80
2018-05-02T08:21:11.503Z,965.82
2018-05-02T08:22:12.184Z,965.82
2018-05-02T08:23:12.861Z,965.82
2018-05-02T08:24:13.535Z,965.86
2018-05-02T08:25:14.220Z,965.82
2018-05-02T08:26:14.913Z,965.85
2018-05-02T08:27:15.582Z,965.79
2018-05-02T08:28:16.264Z,965.79
2018-05-02T08:29:16.942Z,965.77
2018-05-02T08:30:17.619Z,965.77
2018-05-02T08:31:18.296Z,965.74
2018-05-02T08:32:18.980Z,965.77
2018-05-02T08:33:19.662Z,965.73
2018-05-02T08:34:20.348Z,965.76
2018-05-02T08:35:21.023Z,965.74
2018-05-02T08:36:21.699Z,965.73
2018-05-02T08:37:22.340Z,965.72
2018-05-02T08:38:23.058Z,965.73
2018-05-02T08:39:23.733Z,965.70
2018-05-02T08:40:24.412Z,965.73
2018-05-02T08:41:25.092Z,965.71
2018-05-02T08:42:25.774Z,965.67
2018-05-02T08:43:26.465Z,965.72
2018-05-02T08:44:27.146Z,965.72
2018-05-02T08:45:27.825Z,965.70
2018-05-02T08:46:28.504Z,965.71
2018-05-02T08:47:29.183Z,965.66
2018-05-02T08:48:29.860Z,965.73
2018-05-02T08:49:30.539Z,965.73
2018-05-02T08:50:31.224Z,965.72
2018-05-02T08:51:31.909Z,965.72
2018-05-02T08:52:32.589Z,965.68
2018-05-02T08:53:33.268Z,965.68
2018-05-02T08:54:33.944Z,965.66
2018-05-02T08:55:34.627Z,965.64
2018-05-02T08:56:35.312Z,965.63
2018-05-02T08:57:35.995Z,965.61
2018-05-02T08:58:36.669Z,965.58
2018-05-02T08:59:37.348Z,965.55
2018-05-02T09:00:38.028Z,965.50
2018-05-02T09:01:38.715Z,965.50
2018-05-02T09:02:39.390Z,965.47
2018-05-02T09:03:40.076Z,965.44
2018-05-02T09:04:40.756Z,965.42
2018-05-02T09:05:41.433Z,965.45
2018-05-02T09:06:42.119Z,965.46
2018-05-02T09:07:42.803Z,965.45
2018-05-02T09:08:43.481Z,965.47
2018-05-02T09:09:44.164Z,965.48
2018-05-02T09:10:44.845Z,965.46
2018-05-02T09:11:45.528Z,965.47
2018-05-02T09:12:46.210Z,965.51
2018-05-02T09:13:46.894Z,965.48
2018-05-02T09:14:47.576Z,965.43
2018-05-02T09:15:48.255Z,965.38
2018-05-02T09:16:48.941Z,965.32
2018-05-02T09:17:49.619Z,965.30
2018-05-02T09:18:50.307Z,965.26
2018-05-02T09:19:50.978Z,965.24
2018-05-02T09:20:51.656Z,965.24
2018-05-02T09:21:52.334Z,965.23
2018-05-02T09:22:53.012Z,965.17
2018-05-02T09:23:53.689Z,965.19
2018-05-02T09:24:54.377Z,965.18
2018-05-02T09:25:55.055Z,965.20
2018-05-02T09:26:55.733Z,965.17
2018-05-02T09:27:56.417Z,965.16
2018-05-02T09:28:57.090Z,965.18
2018-05-02T09:29:57.770Z,965.17
2018-05-02T09:30:58.446Z,965.17
2018-05-02T09:31:59.132Z,965.24
2018-05-02T09:32:59.810Z,965.23
2018-05-02T09:34:00.491Z,965.20
2018-05-02T09:35:01.179Z,965.15
2018-05-02T09:36:01.863Z,965.14
2018-05-02T09:37:02.542Z,965.10
2018-05-02T09:38:03.220Z,965.12
2018-05-02T09:39:03.899Z,965.11
2018-05-02T09:40:04.583Z,965.09
2018-05-02T09:41:05.263Z,965.06
2018-05-02T09:42:05.953Z,965.02
2018-05-02T09:43:06.633Z,964.99
2018-05-02T09:44:07.403Z,964.98
2018-05-02T09:45:07.991Z,964.97
2018-05-02T09:46:08.668Z,964.96
2018-05-02T09:47:09.349Z,964.91
2018-05-02T09:48:10.030Z,964.93
2018-05-02T09:49:10.709Z,964.95
2018-05-02T09:50:11.395Z,964.98
2018-05-02T09:51:12.073Z,964.98
2018-05-02T09:52:12.763Z,964.97
2018-05-02T09:53:13.441Z,964.95
2018-05-02T09:54:14.119Z,964.93
2018-05-02T09:55:14.804Z,964.96
2018-05-02T09:56:15.485Z,964.99
2018-05-02T09:57:16.115Z,964.92
2018-05-02T09:58:16.927Z,964.93
2018-05-02T09:59:17.532Z,964.94
2018-05-02T10:00:18.213Z,964.93
2018-05-02T10:01:18.894Z,964.99
2018-05-02T10:02:19.579Z,965.00
2018-05-02T10:03:20.256Z,965.00
2018-05-02T10:04:20.931Z,964.97
2018-05-02T10:05:21.612Z,964.99
2018-05-02T10:06:22.294Z,964.98
2018-05-02T10:07:23.029Z,964.97
2018-05-02T10:08:23.655Z,964.99
2018-05-02T10:09:24.337Z,965.01
2018-05-02T10:10:25.021Z,964.99
2018-05-02T10:11:25.696Z,965.01
2018-05-02T10:12:26.428Z,965.03
2018-05-02T10:13:27.055Z,965.06
2018-05-02T10:14:27.738Z,965.05
2018-05-02T10:15:28.416Z,965.05
2018-05-02T10:16:29.092Z,965.02
2018-05-02T10:17:29.820Z,965.04
2018-05-02T10:18:30.514Z,965.03
2018-05-02T10:19:31.130Z,965.01
2018-05-02T10:20:31.819Z,964.95
2018-05-02T10:21:32.491Z,964.90
2018-05-02T10:22:33.174Z,964.93
2018-05-02T10:23:33.855Z,964.91
2018-05-02T10:24:34.536Z,964.89
2018-05-02T10:25:35.213Z,964.88
2018-05-02T10:26:35.891Z,964.90
2018-05-02T10:27:36.576Z,964.84
2018-05-02T10:28:37.255Z,964.87
2018-05-02T10:29:37.940Z,964.88
2018-05-02T10:30:38.629Z,964.83
2018-05-02T10:31:39.318Z,964.75
2018-05-02T10:32:40.010Z,964.74
2018-05-02T10:33:40.694Z,964.71
2018-05-02T10:34:41.375Z,964.66
2018-05-02T10:35:42.058Z,964.68
2018-05-02T10:36:42.738Z,964.64
2018-05-02T10:37:43.422Z,964.68
2018-05-02T10:38:44.111Z,964.68
2018-05-02T10:39:44.787Z,964.69
2018-05-02T10:40:45.468Z,964.74
2018-05-02T10:41:46.143Z,964.74
2018-05-02T10:42:46.861Z,964.71
2018-05-02T10:43:47.517Z,964.71
2018-05-02T10:44:48.199Z,964.69
2018-05-02T10:45:48.878Z,964.72
2018-05-02T10:46:49.562Z,964.74
2018-05-02T10:47:50.243Z,964.70
2018-05-02T10:48:50.923Z,964.69
2018-05-02T10:49:51.605Z,964.70
2018-05-02T10:50:52.286Z,964.64
2018-05-02T10:51:52.968Z,964.64
2018-05-02T10:52:53.650Z,964.64
2018-05-02T10:53:54.333Z,964.64
2018-05-02T10:54:55.015Z,964.65
2018-05-02T10:55:55.716Z,964.65
2018-05-02T10:56:56.379Z,964.61
2018-05-02T10:57:57.061Z,964.65
2018-05-02T10:58:57.754Z,964.69
2018-05-02T10:59:58.424Z,964.72
2018-05-02T11:00:59.115Z,964.67
2018-05-02T11:01:59.798Z,964.67
2018-05-02T11:03:00.481Z,964.67
2018-05-02T11:04:01.163Z,964.66
2018-05-02T11:05:01.844Z,964.67
2018-05-02T11:06:02.525Z,964.66
2018-05-02T11:07:03.208Z,964.66
2018-05-02T11:08:03.892Z,964.71
2018-05-02T11:09:04.575Z,964.72
2018-05-02T11:10:05.256Z,964.73
2018-05-02T11:11:05.943Z,964.78
2018-05-02T11:12:06.616Z,964.75
2018-05-02T11:13:07.294Z,964.77
2018-05-02T11:14:07.974Z,964.77
2018-05-02T11:15:08.655Z,964.76
2018-05-02T11:16:09.335Z,964.80
2018-05-02T11:17:10.018Z,964.81
2018-05-02T11:18:10.709Z,964.79
2018-05-02T11:19:11.388Z,964.74
2018-05-02T11:20:12.073Z,964.74
2018-05-02T11:21:12.758Z,964.76
2018-05-02T11:22:13.441Z,964.73
2018-05-02T11:23:14.125Z,964.69
2018-05-02T11:24:14.806Z,964.70
2018-05-02T11:25:15.487Z,964.70
2018-05-02T11:26:16.170Z,964.73
2018-05-02T11:27:16.852Z,964.74
2018-05-02T11:28:17.569Z,964.68
2018-05-02T11:29:18.221Z,964.66
2018-05-02T11:30:18.903Z,964.65
2018-05-02T11:31:19.583Z,964.69
2018-05-02T11:32:20.270Z,964.65
2018-05-02T11:33:20.957Z,964.63
2018-05-02T11:34:21.645Z,964.63
2018-05-02T11:35:22.324Z,964.68
2018-05-02T11:36:23.009Z,964.69
2018-05-02T11:37:23.686Z,964.70
2018-05-02T11:38:24.379Z,964.69
2018-05-02T11:39:25.060Z,964.68
2018-05-02T11:40:25.742Z,964.69
2018-05-02T11:41:26.422Z,964.68
2018-05-02T11:42:27.106Z,964.67
2018-05-02T11:43:27.787Z,964.69
2018-05-02T11:44:28.468Z,964.70
2018-05-02T11:45:29.155Z,964.65
2018-05-02T11:46:29.844Z,964.62
2018-05-02T11:47:30.528Z,964.61
2018-05-02T11:48:31.221Z,964.60
2018-05-02T11:49:31.909Z,964.59
2018-05-02T11:50:32.593Z,964.61
2018-05-02T11:51:33.275Z,964.60
2018-05-02T11:52:33.958Z,964.65
2018-05-02T11:53:34.642Z,964.57
2018-05-02T11:54:35.322Z,964.58
2018-05-02T11:55:36.031Z,964.52
2018-05-02T11:56:36.717Z,964.55
2018-05-02T11:57:37.417Z,964.51
2018-05-02T11:58:38.097Z,964.52
2018-05-02T11:59:38.778Z,964.48
2018-05-02T12:00:39.462Z,964.47
2018-05-02T12:01:40.149Z,964.47
2018-05-02T12:02:40.839Z,964.48
2018-05-02T12:03:41.519Z,964.50
2018-05-02T12:04:42.204Z,964.48
2018-05-02T12:05:42.884Z,964.52
2018-05-02T12:06:43.567Z,964.54
2018-05-02T12:07:44.253Z,964.54
2018-05-02T12:08:44.936Z,964.52
2018-05-02T12:09:45.629Z,964.56
2018-05-02T12:10:46.311Z,964.55
2018-05-02T12:11:46.996Z,964.49
2018-05-02T12:12:47.684Z,964.51
2018-05-02T12:13:48.363Z,964.51
2018-05-02T12:14:49.049Z,964.48
2018-05-02T12:15:49.733Z,964.51
2018-05-02T12:16:50.416Z,964.51
2018-05-02T12:17:51.099Z,964.53
2018-05-02T12:18:51.781Z,964.51
2018-05-02T12:19:52.480Z,964.48
2018-05-02T12:20:53.154Z,964.46
2018-05-02T12:21:53.893Z,964.46
2018-05-02T12:22:54.523Z,964.41
2018-05-02T12:23:55.208Z,964.40
2018-05-02T12:24:55.897Z,964.36
2018-05-02T12:25:56.588Z,964.36
2018-05-02T12:26:57.279Z,964.36
2018-05-02T12:27:57.964Z,964.34
2018-05-02T12:28:58.663Z,964.31
2018-05-02T12:29:59.353Z,964.21
2018-05-02T12:31:00.040Z,964.18
2018-05-02T12:32:00.723Z,964.17
2018-05-02T12:33:01.409Z,964.20
2018-05-02T12:34:02.093Z,964.15
2018-05-02T12:35:02.787Z,964.15
2018-05-02T12:36:03.469Z,964.14
2018-05-02T12:37:04.151Z,964.16